Time;durP1;ratioP1;P1;durP2;ratioP2;P2;SDS_P1;SDS_P2;PMS_P1;PMS_P2;Temp;Humidity;BMP_temperature;BMP_pressure;BME280_temperature;BME280_humidity;BME280_pressure;Samples;Min_cycle;Max_cycle;Signal;HPM_P1;HPM_P2
2023/05/19 13:44:24;;;;;;;9.60;2.25;;;;;;;;;;7303200;19;20921;-77
2023/05/19 22:02:38;;;;;;;6.57;2.85;;;;;;;;;;7313559;19;20511;-77
2023/05/19 22:05:04;;;;;;;6.85;2.40;;;;;;;;;;7349895;19;20323;-75
2023/05/19 22:07:29;;;;;;;6.80;2.90;;;;;;;;;;7364162;19;20075;-78
2023/05/19 22:09:54;;;;;;;7.07;2.70;;;;;;;;;;7360006;19;20011;-79
2023/05/19 22:12:19;;;;;;;6.93;2.67;;;;;;;;;;7367088;19;20031;-78
2023/05/19 22:14:45;;;;;;;7.63;2.58;;;;;;;;;;7367906;19;20232;-79
2023/05/19 22:17:10;;;;;;;7.07;2.28;;;;;;;;;;7368116;19;20012;-79
2023/05/19 22:19:35;;;;;;;6.67;2.50;;;;;;;;;;7361032;19;20452;-79
2023/05/19 22:22:00;;;;;;;8.35;2.65;;;;;;;;;;7367833;19;20070;-79
2023/05/19 22:24:26;;;;;;;6.30;2.57;;;;;;;;;;7365453;19;20010;-78
2023/05/19 22:26:51;;;;;;;7.65;2.25;;;;;;;;;;7367520;19;20303;-78
2023/05/19 22:29:17;;;;;;;5.93;2.47;;;;;;;;;;7357234;19;20055;-79
2023/05/19 22:31:43;;;;;;;4.65;2.30;;;;;;;;;;7368912;19;20227;-79
2023/05/19 22:34:08;;;;;;;6.78;2.58;;;;;;;;;;7367053;19;20433;-79
2023/05/19 22:36:33;;;;;;;11.18;2.63;;;;;;;;;;7364532;19;19991;-78
2023/05/19 22:38:58;;;;;;;8.90;2.78;;;;;;;;;;7365113;19;20147;-78
2023/05/19 22:41:23;;;;;;;6.53;2.65;;;;;;;;;;7366760;19;19995;-78
2023/05/19 22:43:49;;;;;;;7.30;3.00;;;;;;;;;;7365475;19;20848;-79
2023/05/19 22:46:14;;;;;;;6.00;2.63;;;;;;;;;;7366487;19;20372;-78
2023/05/19 22:48:39;;;;;;;6.88;2.60;;;;;;;;;;7368146;19;20300;-79
2023/05/19 22:51:04;;;;;;;7.65;2.63;;;;;;;;;;7368380;19;20087;-78
2023/05/19 22:53:30;;;;;;;6.93;2.58;;;;;;;;;;7364534;19;20078;-80
2023/05/19 22:55:55;;;;;;;5.73;2.47;;;;;;;;;;7366020;19;20028;-78
2023/05/19 22:58:20;;;;;;;6.63;2.77;;;;;;;;;;7363480;19;20268;-78
2023/05/19 23:00:45;;;;;;;6.32;2.53;;;;;;;;;;7345668;19;20464;-78
2023/05/19 23:03:11;;;;;;;7.82;2.72;;;;;;;;;;7365380;19;20010;-78
2023/05/19 23:05:36;;;;;;;6.95;2.47;;;;;;;;;;7366931;19;20026;-78
2023/05/19 23:08:01;;;;;;;7.13;2.87;;;;;;;;;;7366400;19;20017;-79
2023/05/19 23:10:26;;;;;;;5.40;2.30;;;;;;;;;;7361341;19;20244;-78
2023/05/19 23:12:51;;;;;;;5.50;2.50;;;;;;;;;;7364882;19;20455;-79
2023/05/19 23:15:17;;;;;;;6.18;2.28;;;;;;;;;;7357255;19;20315;-78
2023/05/19 23:17:42;;;;;;;9.50;2.90;;;;;;;;;;7369230;19;20286;-80
2023/05/19 23:20:07;;;;;;;7.67;2.70;;;;;;;;;;7370587;19;19998;-78
2023/05/19 23:22:33;;;;;;;7.57;2.60;;;;;;;;;;7368005;19;20305;-78
2023/05/19 23:25:00;;;;;;;7.00;2.80;;;;;;;;;;7374332;19;20090;-79
2023/05/19 23:27:25;;;;;;;9.77;3.00;;;;;;;;;;7371702;19;20256;-79
2023/05/19 23:29:50;;;;;;;8.30;2.63;;;;;;;;;;7370827;19;20470;-79
2023/05/19 23:32:16;;;;;;;9.82;3.17;;;;;;;;;;7369206;19;19998;-78
2023/05/19 23:34:41;;;;;;;6.10;2.70;;;;;;;;;;7370542;19;19998;-79
2023/05/19 23:37:06;;;;;;;7.57;2.70;;;;;;;;;;7373035;19;20055;-79
2023/05/19 23:39:31;;;;;;;14.85;3.08;;;;;;;;;;7365599;19;20267;-78
2023/05/19 23:41:57;;;;;;;5.63;2.53;;;;;;;;;;7370822;19;20005;-79
2023/05/19 23:44:22;;;;;;;5.90;2.53;;;;;;;;;;7366187;19;20007;-80
2023/05/19 23:46:47;;;;;;;5.87;2.60;;;;;;;;;;7372575;19;19999;-78
2023/05/19 23:49:13;;;;;;;6.40;2.90;;;;;;;;;;7373920;19;20345;-80
2023/05/19 23:51:38;;;;;;;6.03;2.17;;;;;;;;;;7366799;19;20452;-79
2023/05/19 23:54:03;;;;;;;6.60;2.40;;;;;;;;;;7366340;19;19999;-79
2023/05/19 23:56:28;;;;;;;6.63;2.30;;;;;;;;;;7370198;19;20327;-80
2023/05/19 23:58:53;;;;;;;7.50;3.13;;;;;;;;;;7367322;19;20243;-78
